Time;durP1;ratioP1;P1;durP2;ratioP2;P2;SDS_P1;SDS_P2;PMS_P1;PMS_P2;Temp;Humidity;BMP_temperature;BMP_pressure;BME280_temperature;BME280_humidity;BME280_pressure;Samples;Min_cycle;Max_cycle;Signal;HPM_P1;HPM_P2
2023/09/01 00:01:23;;;;;;;4.70;2.03;;;19.50;71.70;;;;;;10407320;28;20025;-61
2023/09/01 00:06:24;;;;;;;3.63;1.92;;;19.50;71.70;;;;;;10409041;28;20034;-61
2023/09/01 00:11:25;;;;;;;4.00;1.80;;;19.50;71.70;;;;;;10407147;28;20527;-60
2023/09/01 00:16:26;;;;;;;3.28;1.83;;;19.50;71.60;;;;;;10408440;28;20057;-61
2023/09/01 00:21:27;;;;;;;3.33;1.60;;;19.50;71.70;;;;;;10406737;28;20056;-61
2023/09/01 00:26:27;;;;;;;4.47;1.60;;;19.50;71.70;;;;;;10442549;28;20056;-61
2023/09/01 00:31:28;;;;;;;3.33;1.63;;;19.50;71.60;;;;;;10430976;28;20095;-61
2023/09/01 00:36:29;;;;;;;3.38;1.83;;;19.50;71.60;;;;;;10416903;28;20048;-61
2023/09/01 00:41:29;;;;;;;3.05;1.80;;;19.50;71.60;;;;;;10416167;28;20041;-61
2023/09/01 00:46:32;;;;;;;6.10;2.22;;;19.50;71.60;;;;;;10416227;28;20048;-61
2023/09/01 00:51:33;;;;;;;2.90;1.85;;;19.50;72.20;;;;;;10415677;28;20033;-61
2023/09/01 00:56:34;;;;;;;3.13;2.03;;;19.50;71.60;;;;;;10416405;28;20037;-61
2023/09/01 01:01:35;;;;;;;4.18;2.40;;;19.50;71.50;;;;;;10415114;28;20048;-62
2023/09/01 01:07:00;;;;;;;4.30;1.98;;;19.50;71.40;;;;;;10439721;28;20021;-61
2023/09/01 01:13:04;;;;;;;3.55;1.95;;;19.50;71.40;;;;;;10454815;28;20028;-61
2023/09/01 01:18:10;;;;;;;3.92;2.30;;;19.50;71.30;;;;;;10456288;28;20040;-62
2023/09/01 01:23:17;;;;;;;4.82;2.42;;;19.50;71.30;;;;;;10452894;28;20029;-61
2023/09/01 01:28:20;;;;;;;5.30;2.33;;;19.50;71.30;;;;;;10419672;28;20171;-61
2023/09/01 01:33:50;;;;;;;4.30;2.35;;;19.40;71.30;;;;;;10414015;28;20041;-61
2023/09/01 01:39:02;;;;;;;;;;;19.40;71.30;;;;;;10414354;28;20131;-60
2023/09/01 01:44:06;;;;;;;4.68;2.15;;;19.40;71.40;;;;;;10427239;28;19909;-60
2023/09/01 01:49:10;;;;;;;2.78;1.83;;;19.40;71.40;;;;;;10429003;28;20154;-61
2023/09/01 01:54:11;;;;;;;2.90;1.95;;;19.40;71.40;;;;;;10413270;28;20033;-61
2023/09/01 01:59:12;;;;;;;3.60;2.10;;;19.40;71.40;;;;;;10413857;28;20030;-61
2023/09/01 02:04:12;;;;;;;4.78;2.10;;;19.40;71.40;;;;;;10413161;28;20029;-60
2023/09/01 02:09:14;;;;;;;4.38;2.65;;;19.40;71.40;;;;;;10412872;28;20037;-60
2023/09/01 02:14:15;;;;;;;4.85;3.15;;;19.40;71.40;;;;;;10412792;28;20681;-60
2023/09/01 02:19:16;;;;;;;4.03;2.00;;;19.40;71.40;;;;;;10412544;28;20041;-61
2023/09/01 02:24:16;;;;;;;3.80;2.25;;;19.40;71.40;;;;;;10427433;28;20049;-61
2023/09/01 02:29:17;;;;;;;3.08;1.95;;;19.40;71.40;;;;;;10441739;28;20084;-61
2023/09/01 02:34:18;;;;;;;3.70;2.50;;;19.40;71.40;;;;;;10411572;28;20033;-61
2023/09/01 02:39:19;;;;;;;3.13;1.75;;;19.40;71.40;;;;;;10439969;28;20479;-60
2023/09/01 02:44:20;;;;;;;2.80;2.10;;;19.40;71.40;;;;;;10452346;28;20051;-61
2023/09/01 02:49:21;;;;;;;2.80;2.08;;;19.40;71.40;;;;;;10450294;28;20029;-61
2023/09/01 02:54:21;;;;;;;4.03;2.15;;;19.40;71.40;;;;;;10452349;28;20389;-60
2023/09/01 02:59:22;;;;;;;3.85;2.00;;;19.30;71.30;;;;;;10450899;28;20036;-61
2023/09/01 03:04:23;;;;;;;3.67;1.60;;;19.30;71.30;;;;;;10452139;28;20029;-61
2023/09/01 03:09:24;;;;;;;3.72;2.05;;;19.40;71.30;;;;;;10451853;28;20032;-61
2023/09/01 03:14:24;;;;;;;4.03;1.75;;;19.30;71.20;;;;;;10451588;28;20045;-60
2023/09/01 03:19:26;;;;;;;3.38;2.10;;;19.30;71.20;;;;;;10441262;28;20040;-60
2023/09/01 03:24:28;;;;;;;4.30;2.08;;;19.30;71.20;;;;;;10409937;28;20091;-61
2023/09/01 03:29:28;;;;;;;3.95;2.30;;;19.30;71.80;;;;;;10439223;28;20750;-62
2023/09/01 03:34:30;;;;;;;2.92;2.00;;;19.30;71.30;;;;;;10409568;28;20041;-61
2023/09/01 03:39:30;;;;;;;3.42;1.80;;;19.30;71.30;;;;;;10409798;28;20021;-60
2023/09/01 03:44:31;;;;;;;2.38;1.88;;;19.30;71.20;;;;;;10409101;28;20033;-61
2023/09/01 03:49:32;;;;;;;2.75;1.77;;;19.30;71.20;;;;;;10409337;28;20025;-61
2023/09/01 03:54:33;;;;;;;3.22;2.13;;;19.30;71.20;;;;;;10409104;28;20084;-60
2023/09/01 03:59:34;;;;;;;2.60;1.92;;;19.30;71.30;;;;;;10408820;28;20033;-61
2023/09/01 04:04:34;;;;;;;4.00;2.40;;;19.30;71.20;;;;;;10408849;28;20471;-61
2023/09/01 04:09:35;;;;;;;5.07;1.98;;;19.30;71.20;;;;;;10408756;28;20022;-60
2023/09/01 04:14:36;;;;;;;3.65;2.17;;;19.30;71.20;;;;;;10433188;28;20045;-61
2023/09/01 04:19:37;;;;;;;2.60;1.60;;;19.30;71.30;;;;;;10426993;28;20029;-60
2023/09/01 04:24:38;;;;;;;4.55;2.60;;;19.30;71.20;;;;;;10425829;28;20029;-61
2023/09/01 04:29:40;;;;;;;4.03;2.10;;;19.30;71.30;;;;;;10426709;28;20496;-61
2023/09/01 04:34:41;;;;;;;3.00;2.05;;;19.30;71.20;;;;;;10422034;28;20033;-61
2023/09/01 04:39:41;;;;;;;3.50;1.65;;;19.30;71.20;;;;;;10434067;28;20484;-60
2023/09/01 04:44:42;;;;;;;2.83;1.85;;;19.20;71.10;;;;;;10413708;28;20041;-60
2023/09/01 04:49:43;;;;;;;2.90;1.52;;;19.20;71.10;;;;;;10423845;28;20484;-61
2023/09/01 04:54:43;;;;;;;3.22;2.00;;;19.30;71.20;;;;;;10419828;28;20029;-61
2023/09/01 04:59:45;;;;;;;6.82;2.17;;;19.40;71.10;;;;;;10421718;28;20152;-61
2023/09/01 05:04:45;;;;;;;3.88;1.88;;;19.40;71.30;;;;;;10411465;28;20034;-60
2023/09/01 05:09:46;;;;;;;4.20;2.15;;;19.40;71.30;;;;;;10407456;28;20436;-62
2023/09/01 05:14:47;;;;;;;7.00;2.10;;;19.50;71.40;;;;;;10414947;28;20089;-62
2023/09/01 05:19:48;;;;;;;8.65;2.58;;;19.60;71.50;;;;;;10414754;28;20021;-61
2023/09/01 05:24:49;;;;;;;8.90;2.10;;;19.60;70.80;;;;;;10430955;28;20460;-60
2023/09/01 05:29:49;;;;;;;8.82;2.03;;;19.60;71.30;;;;;;10440955;28;20037;-60
2023/09/01 05:34:50;;;;;;;7.65;2.05;;;19.60;71.40;;;;;;10414260;28;20033;-62
2023/09/01 05:39:51;;;;;;;8.50;2.35;;;19.60;71.60;;;;;;10414099;28;20046;-62
2023/09/01 05:44:52;;;;;;;6.80;3.03;;;19.70;71.50;;;;;;10425496;28;20025;-64
2023/09/01 05:49:52;;;;;;;12.85;2.85;;;19.70;71.70;;;;;;10429645;28;20033;-60
2023/09/01 05:54:53;;;;;;;8.40;3.53;;;19.60;72.00;;;;;;10413078;28;20030;-60
2023/09/01 05:59:54;;;;;;;13.75;2.95;;;19.60;71.90;;;;;;10413564;28;20377;-61
2023/09/01 06:04:55;;;;;;;14.98;3.22;;;19.70;72.40;;;;;;10412148;28;20033;-60
2023/09/01 06:09:56;;;;;;;12.20;2.67;;;19.60;72.00;;;;;;10412339;28;20043;-60
2023/09/01 06:14:57;;;;;;;16.05;2.78;;;19.60;72.20;;;;;;10413748;28;20051;-60
2023/09/01 06:19:57;;;;;;;16.48;2.90;;;19.60;72.20;;;;;;10451400;28;20395;-60
2023/09/01 06:24:58;;;;;;;7.32;2.35;;;19.50;72.30;;;;;;10435140;28;20037;-61
2023/09/01 06:29:59;;;;;;;10.40;2.97;;;19.50;72.60;;;;;;10414068;28;20025;-60
2023/09/01 06:35:00;;;;;;;13.20;3.95;;;19.50;72.70;;;;;;10411496;28;20033;-60
2023/09/01 06:40:00;;;;;;;11.25;2.38;;;19.40;72.70;;;;;;10410977;28;20036;-60
2023/09/01 06:45:01;;;;;;;12.32;2.80;;;19.40;72.70;;;;;;10422906;28;20025;-61
2023/09/01 06:50:02;;;;;;;10.57;3.75;;;19.40;72.50;;;;;;10451758;28;20028;-58
2023/09/01 06:55:03;;;;;;;5.85;2.30;;;19.40;72.40;;;;;;10451777;28;20116;-58
2023/09/01 07:00:05;;;;;;;8.68;2.92;;;19.40;72.60;;;;;;10451135;28;20039;-58
2023/09/01 07:05:06;;;;;;;8.63;3.38;;;19.40;72.40;;;;;;10452095;28;20033;-58
2023/09/01 07:10:08;;;;;;;7.72;2.60;;;19.40;72.40;;;;;;10450561;28;20517;-61
2023/09/01 07:15:09;;;;;;;4.60;2.00;;;19.40;72.30;;;;;;10451171;28;20255;-61
2023/09/01 07:20:11;;;;;;;4.97;2.65;;;19.40;72.30;;;;;;10450757;28;20025;-61
2023/09/01 07:25:13;;;;;;;6.88;2.92;;;19.40;72.30;;;;;;10432625;28;20457;-61
2023/09/01 07:30:14;;;;;;;6.07;2.90;;;19.40;72.30;;;;;;10413678;28;20078;-61
2023/09/01 07:35:16;;;;;;;7.18;2.88;;;19.40;72.30;;;;;;10407552;28;20479;-61
2023/09/01 07:40:17;;;;;;;5.45;2.53;;;19.40;72.30;;;;;;10418161;28;20036;-60
2023/09/01 07:45:18;;;;;;;4.75;1.98;;;19.40;72.20;;;;;;10408621;28;20025;-61
2023/09/01 07:50:19;;;;;;;5.72;2.53;;;19.40;72.20;;;;;;10420216;28;20021;-61
2023/09/01 07:55:20;;;;;;;3.80;2.28;;;19.40;72.20;;;;;;10408487;28;20025;-61
2023/09/01 08:00:22;;;;;;;3.22;2.00;;;19.40;72.20;;;;;;10408001;28;20049;-61
2023/09/01 08:05:23;;;;;;;7.93;2.90;;;19.40;72.20;;;;;;10407641;28;20492;-59
2023/09/01 08:10:24;;;;;;;8.60;2.10;;;19.40;72.00;;;;;;10407906;28;20104;-58
2023/09/01 08:15:25;;;;;;;10.32;2.47;;;19.50;72.10;;;;;;10407852;28;20049;-60
2023/09/01 08:20:26;;;;;;;6.95;2.60;;;19.50;72.00;;;;;;10424565;28;20904;-61
2023/09/01 08:25:26;;;;;;;7.60;2.63;;;19.60;72.50;;;;;;10428974;28;20108;-61
2023/09/01 08:30:27;;;;;;;3.80;2.03;;;19.60;72.50;;;;;;10425716;28;20029;-60
2023/09/01 08:35:28;;;;;;;6.90;2.72;;;19.60;72.30;;;;;;10413286;28;20038;-60
2023/09/01 08:40:29;;;;;;;5.20;2.10;;;19.50;72.20;;;;;;10407790;28;20079;-60
2023/09/01 08:45:31;;;;;;;4.47;2.10;;;19.50;72.40;;;;;;10407562;28;20026;-60
2023/09/01 08:50:33;;;;;;;3.53;1.85;;;19.50;72.50;;;;;;10423606;28;20155;-61
2023/09/01 08:55:33;;;;;;;5.13;2.72;;;19.40;72.50;;;;;;10433391;28;20025;-60
2023/09/01 09:00:34;;;;;;;4.40;2.22;;;19.40;72.60;;;;;;10431355;28;20033;-61
2023/09/01 09:05:35;;;;;;;3.85;2.00;;;19.40;72.60;;;;;;10421429;28;20021;-61
2023/09/01 09:10:39;;;;;;;5.78;2.53;;;19.40;72.60;;;;;;10427684;28;20032;-61
2023/09/01 09:15:40;;;;;;;3.70;2.33;;;19.40;72.60;;;;;;10435737;28;20056;-60
2023/09/01 09:20:40;;;;;;;3.20;1.80;;;19.40;72.60;;;;;;10435705;28;20029;-60
2023/09/01 09:25:41;;;;;;;2.53;1.70;;;19.40;72.50;;;;;;10425966;28;20034;-60
2023/09/01 09:30:49;;;;;;;4.47;3.00;;;19.40;72.50;;;;;;10436939;28;20329;-60
2023/09/01 09:35:51;;;;;;;8.35;2.10;;;19.40;72.50;;;;;;10442841;28;20035;-61
2023/09/01 09:41:02;;;;;;;3.22;2.20;;;19.40;72.60;;;;;;10443089;28;20392;-60
2023/09/01 09:46:04;;;;;;;4.85;2.22;;;19.40;72.60;;;;;;10423780;28;20037;-61
2023/09/01 09:51:10;;;;;;;6.22;2.30;;;19.40;72.60;;;;;;10431543;28;20037;-60
2023/09/01 09:56:20;;;;;;;4.93;2.00;;;19.40;72.60;;;;;;10430885;28;20107;-60
2023/09/01 10:01:24;;;;;;;3.40;2.03;;;19.40;72.50;;;;;;10452963;28;20037;-60
2023/09/01 10:06:24;;;;;;;4.22;2.17;;;19.40;72.60;;;;;;10453172;28;20532;-60
2023/09/01 10:11:28;;;;;;;4.28;2.10;;;19.40;72.90;;;;;;10451984;28;20029;-60
2023/09/01 10:16:30;;;;;;;3.13;2.30;;;19.30;72.90;;;;;;10453558;28;20080;-60
2023/09/01 10:21:31;;;;;;;5.85;2.75;;;19.40;73.00;;;;;;10452342;28;20033;-60
2023/09/01 10:26:32;;;;;;;3.88;2.63;;;19.40;72.90;;;;;;10423456;28;20428;-60
2023/09/01 10:31:35;;;;;;;4.50;2.30;;;19.30;72.90;;;;;;10415792;28;20038;-60
2023/09/01 10:36:38;;;;;;;4.85;2.80;;;19.40;72.90;;;;;;10417674;28;20029;-60
2023/09/01 10:42:07;;;;;;;6.60;4.13;;;19.30;72.90;;;;;;10417955;28;20047;-60
2023/09/01 10:47:33;;;;;;;6.32;4.50;;;19.30;73.10;;;;;;10411340;28;20427;-60
2023/09/01 10:52:34;;;;;;;6.75;3.55;;;19.30;73.10;;;;;;10439682;28;20028;-60
2023/09/01 10:57:46;;;;;;;6.80;4.28;;;19.40;73.20;;;;;;10452266;28;20024;-60
2023/09/01 11:02:47;;;;;;;6.00;3.78;;;19.30;73.10;;;;;;10451695;28;20032;-60
2023/09/01 11:08:15;;;;;;;4.70;3.50;;;19.30;73.10;;;;;;10449997;28;20671;-60
2023/09/01 11:13:18;;;;;;;4.28;3.38;;;19.30;73.00;;;;;;10450512;28;20055;-61
2023/09/01 11:18:24;;;;;;;4.40;3.30;;;19.30;73.20;;;;;;10450145;28;20028;-60
2023/09/01 11:23:25;;;;;;;5.00;3.80;;;19.30;73.10;;;;;;10409659;28;20029;-60
2023/09/01 11:28:28;;;;;;;4.22;3.08;;;19.30;73.20;;;;;;10438994;28;20029;-61
2023/09/01 11:33:33;;;;;;;3.78;3.38;;;19.30;72.90;;;;;;10422348;28;20033;-60
2023/09/01 11:38:37;;;;;;;4.22;3.70;;;19.30;74.20;;;;;;10416085;28;20034;-60
2023/09/01 11:43:38;;;;;;;4.25;2.92;;;19.40;73.90;;;;;;10423903;28;20536;-60
2023/09/01 11:48:40;;;;;;;5.57;3.03;;;19.50;74.00;;;;;;10409228;28;20178;-61
2023/09/01 11:53:40;;;;;;;7.13;3.10;;;19.50;73.70;;;;;;10421687;28;20365;-59
2023/09/01 11:58:41;;;;;;;5.28;2.53;;;19.60;73.30;;;;;;10408399;28;20030;-61
2023/09/01 12:03:51;;;;;;;4.40;2.90;;;19.50;73.20;;;;;;10434466;28;20502;-60
2023/09/01 12:08:54;;;;;;;4.57;3.13;;;19.50;73.20;;;;;;10448796;28;20378;-60
2023/09/01 12:13:55;;;;;;;3.97;3.08;;;19.50;73.30;;;;;;10448572;28;20088;-59
2023/09/01 12:19:03;;;;;;;8.00;3.05;;;19.50;73.90;;;;;;10448328;28;20120;-60
2023/09/01 12:24:07;;;;;;;6.68;2.85;;;19.70;74.20;;;;;;10452255;28;20026;-60
2023/09/01 12:29:08;;;;;;;9.07;2.85;;;19.80;74.10;;;;;;10426676;28;20029;-59
2023/09/01 12:34:08;;;;;;;9.27;2.90;;;19.80;74.10;;;;;;10421177;28;20107;-60
2023/09/01 12:39:09;;;;;;;6.03;3.33;;;19.80;73.80;;;;;;10421254;28;20047;-60
2023/09/01 12:44:10;;;;;;;4.70;2.95;;;19.70;73.80;;;;;;10420562;28;20037;-60
2023/09/01 12:49:10;;;;;;;5.05;2.92;;;19.60;73.90;;;;;;10421062;28;20381;-60
2023/09/01 12:54:11;;;;;;;6.30;3.75;;;19.60;73.90;;;;;;10420207;28;20029;-60
2023/09/01 12:59:12;;;;;;;4.65;2.67;;;19.60;73.90;;;;;;10420435;28;20026;-60
2023/09/01 13:04:13;;;;;;;8.00;3.20;;;19.60;74.00;;;;;;10420368;28;20647;-60
2023/09/01 13:09:13;;;;;;;4.35;2.58;;;19.60;74.00;;;;;;10420487;28;20049;-60
2023/09/01 13:14:14;;;;;;;4.50;2.42;;;19.60;73.90;;;;;;10420035;28;20049;-61
2023/09/01 13:19:15;;;;;;;4.40;2.70;;;19.50;73.90;;;;;;10420616;28;20364;-60
2023/09/01 13:24:16;;;;;;;5.18;2.53;;;19.60;74.00;;;;;;10419829;28;20038;-60
2023/09/01 13:29:16;;;;;;;4.43;2.60;;;19.60;73.90;;;;;;10449743;28;20534;-60
2023/09/01 13:34:17;;;;;;;5.50;3.10;;;19.50;73.80;;;;;;10415423;28;20079;-60
2023/09/01 13:39:18;;;;;;;3.83;2.30;;;19.50;73.80;;;;;;10413696;28;20033;-60
2023/09/01 13:44:18;;;;;;;3.53;2.35;;;19.60;73.90;;;;;;10413300;28;20030;-60
2023/09/01 13:49:19;;;;;;;3.25;2.05;;;19.50;73.80;;;;;;10413648;28;20026;-60
2023/09/01 13:54:20;;;;;;;3.63;2.45;;;19.50;73.80;;;;;;10412684;28;20531;-60
2023/09/01 13:59:21;;;;;;;4.35;2.03;;;19.50;73.90;;;;;;10413081;28;20022;-60
2023/09/01 14:04:21;;;;;;;3.65;2.35;;;19.50;73.80;;;;;;10412476;28;20196;-60
2023/09/01 14:09:22;;;;;;;3.58;2.35;;;19.50;73.80;;;;;;10412562;28;20029;-60
2023/09/01 14:14:23;;;;;;;3.95;2.30;;;19.50;73.80;;;;;;10412679;28;20064;-60
2023/09/01 14:19:24;;;;;;;6.00;2.60;;;19.60;73.20;;;;;;10445421;28;20025;-60
2023/09/01 14:24:25;;;;;;;3.78;1.83;;;19.60;73.60;;;;;;10440357;28;20033;-61
2023/09/01 14:29:25;;;;;;;3.90;1.95;;;19.50;73.70;;;;;;10416647;28;20036;-60
2023/09/01 14:34:26;;;;;;;14.75;2.95;;;19.50;73.80;;;;;;10411207;28;20029;-60
2023/09/01 14:39:27;;;;;;;14.88;3.40;;;19.60;73.90;;;;;;10415551;28;20460;-60
2023/09/01 14:44:28;;;;;;;14.90;3.22;;;19.60;74.20;;;;;;10432007;28;20032;-60
2023/09/01 14:49:29;;;;;;;8.50;3.00;;;19.60;74.20;;;;;;10426169;28;20029;-65
2023/09/01 14:54:30;;;;;;;11.60;3.28;;;19.60;74.20;;;;;;10410372;28;20486;-60
2023/09/01 14:59:31;;;;;;;30.40;6.10;;;19.60;74.20;;;;;;10429991;28;20090;-69
2023/09/01 15:04:31;;;;;;;36.85;8.18;;;19.80;74.80;;;;;;10451507;28;20017;-60
2023/09/01 15:09:32;;;;;;;33.85;7.00;;;19.80;78.60;;;;;;10436120;28;20034;-60
2023/09/01 15:14:33;;;;;;;33.80;6.97;;;19.90;77.80;;;;;;10422419;28;20045;-59
2023/09/01 15:19:33;;;;;;;36.42;7.65;;;19.90;76.10;;;;;;10430122;28;20363;-61
2023/09/01 15:24:34;;;;;;;38.42;6.18;;;19.90;75.80;;;;;;10422919;28;20020;-59
2023/09/01 15:29:35;;;;;;;34.20;6.68;;;19.90;75.80;;;;;;10429039;28;20354;-59
2023/09/01 15:34:37;;;;;;;37.90;5.95;;;19.80;76.10;;;;;;10444740;28;20033;-59
2023/09/01 15:39:37;;;;;;;22.30;5.07;;;19.90;76.00;;;;;;10438286;28;20037;-59
2023/09/01 15:44:40;;;;;;;21.65;6.70;;;19.90;75.80;;;;;;10426159;28;20037;-60
2023/09/01 15:49:41;;;;;;;23.30;6.00;;;20.00;76.60;;;;;;10408836;28;20468;-60
2023/09/01 15:54:41;;;;;;;18.48;5.07;;;20.30;74.70;;;;;;10417428;28;20040;-60
2023/09/01 15:59:46;;;;;;;14.25;3.75;;;20.10;75.00;;;;;;10440964;28;20033;-62
2023/09/01 16:04:46;;;;;;;15.82;4.47;;;20.10;74.90;;;;;;10447918;28;20476;-61
2023/09/01 16:09:47;;;;;;;8.25;4.03;;;20.20;77.00;;;;;;10448854;28;20032;-59
2023/09/01 16:14:48;;;;;;;12.82;4.10;;;20.40;77.40;;;;;;10448865;28;20049;-59
2023/09/01 16:19:49;;;;;;;14.40;4.43;;;20.40;76.60;;;;;;10449123;28;20463;-58
2023/09/01 16:24:49;;;;;;;24.23;5.47;;;20.40;76.60;;;;;;10433484;28;20018;-60
2023/09/01 16:29:50;;;;;;;13.40;4.43;;;20.30;76.70;;;;;;10413088;28;20493;-59
2023/09/01 16:34:51;;;;;;;19.35;5.28;;;20.30;76.60;;;;;;10406583;28;20037;-59
2023/09/01 16:39:55;;;;;;;9.20;3.47;;;20.20;76.10;;;;;;10408375;28;20030;-61
2023/09/01 16:44:55;;;;;;;13.93;4.05;;;20.10;76.40;;;;;;10407264;28;20076;-62
2023/09/01 16:49:56;;;;;;;9.55;3.72;;;20.00;76.50;;;;;;10417750;28;20031;-60
2023/09/01 16:54:58;;;;;;;8.30;3.10;;;20.00;76.50;;;;;;10421861;28;20044;-60
2023/09/01 16:59:59;;;;;;;12.45;3.67;;;19.90;76.40;;;;;;10407372;28;20041;-59
2023/09/01 17:05:00;;;;;;;8.63;3.38;;;19.90;76.40;;;;;;10406825;28;20052;-59
2023/09/01 17:10:06;;;;;;;7.72;2.85;;;19.90;76.50;;;;;;10412288;28;20039;-60
2023/09/01 17:15:07;;;;;;;6.60;2.92;;;19.90;76.40;;;;;;10442154;28;20507;-60
2023/09/01 17:20:09;;;;;;;9.55;3.53;;;19.80;76.40;;;;;;10432796;28;20043;-60
2023/09/01 17:25:10;;;;;;;6.68;2.78;;;19.90;75.90;;;;;;10424021;28;20029;-59
2023/09/01 17:30:12;;;;;;;13.50;3.03;;;19.80;76.00;;;;;;10418582;28;20037;-60
2023/09/01 17:35:13;;;;;;;6.65;3.53;;;19.80;76.20;;;;;;10428744;28;20041;-60
2023/09/01 17:40:14;;;;;;;9.00;2.60;;;19.80;76.40;;;;;;10413544;28;20594;-58
2023/09/01 17:45:15;;;;;;;5.22;2.83;;;19.80;76.10;;;;;;10413081;28;20025;-60
2023/09/01 17:50:15;;;;;;;5.72;2.65;;;19.80;76.20;;;;;;10413143;28;20038;-60
2023/09/01 17:55:20;;;;;;;7.88;2.88;;;19.90;77.10;;;;;;10413044;28;20068;-60
2023/09/01 18:00:21;;;;;;;9.15;2.83;;;19.90;76.60;;;;;;10442038;28;20031;-61
2023/09/01 18:05:22;;;;;;;5.57;2.90;;;19.80;76.70;;;;;;10453918;28;20040;-61
2023/09/01 18:10:22;;;;;;;5.43;2.58;;;19.80;76.70;;;;;;10453659;28;20029;-60
2023/09/01 18:15:23;;;;;;;8.95;3.00;;;19.80;76.70;;;;;;10453188;28;20055;-60
2023/09/01 18:20:32;;;;;;;6.22;2.58;;;19.70;76.70;;;;;;10438423;28;20033;-60
2023/09/01 18:25:34;;;;;;;7.55;2.50;;;19.80;77.00;;;;;;10427917;28;20046;-61
2023/09/01 18:30:35;;;;;;;4.90;2.45;;;19.90;76.70;;;;;;10431614;28;20041;-61
2023/09/01 18:35:36;;;;;;;4.00;2.70;;;19.90;76.70;;;;;;10432394;28;20045;-61
2023/09/01 18:40:37;;;;;;;4.60;2.60;;;19.90;76.50;;;;;;10433702;28;20025;-61
2023/09/01 18:45:39;;;;;;;4.68;2.67;;;20.00;76.60;;;;;;10422047;28;20024;-60
2023/09/01 18:50:42;;;;;;;5.18;2.75;;;19.90;76.50;;;;;;10419294;28;20028;-60
2023/09/01 18:55:45;;;;;;;7.00;2.92;;;20.00;76.40;;;;;;10426417;28;20108;-60
2023/09/01 19:00:46;;;;;;;7.20;3.35;;;20.00;76.50;;;;;;10425573;28;20024;-60
2023/09/01 19:05:47;;;;;;;6.00;3.40;;;20.00;76.30;;;;;;10424256;28;20028;-61
2023/09/01 19:10:52;;;;;;;10.32;3.63;;;20.00;76.20;;;;;;10418145;28;20385;-61
2023/09/01 19:15:56;;;;;;;5.38;3.05;;;19.90;76.30;;;;;;10407071;28;20052;-61
2023/09/01 19:21:01;;;;;;;6.60;3.75;;;19.80;76.40;;;;;;10425374;28;20041;-60
2023/09/01 19:26:11;;;;;;;5.47;4.05;;;19.80;76.50;;;;;;10432570;28;20380;-60
2023/09/01 19:31:14;;;;;;;6.05;3.10;;;19.80;76.50;;;;;;10426324;28;20022;-61
2023/09/01 19:36:29;;;;;;;5.03;4.15;;;19.70;76.50;;;;;;10410089;28;20033;-60
2023/09/01 19:41:34;;;;;;;5.07;3.30;;;19.70;76.50;;;;;;10409700;28;20041;-60
2023/09/01 19:46:35;;;;;;;5.28;3.63;;;19.70;76.50;;;;;;10409073;28;20489;-60
2023/09/01 19:51:43;;;;;;;7.63;4.05;;;19.70;76.50;;;;;;10410058;28;20041;-60
2023/09/01 19:56:43;;;;;;;7.47;4.45;;;19.70;76.50;;;;;;10408766;28;20033;-61
2023/09/01 20:01:45;;;;;;;10.68;4.28;;;19.60;76.40;;;;;;10408859;28;20030;-61
2023/09/01 20:06:46;;;;;;;5.63;4.35;;;19.70;76.50;;;;;;10421063;28;20029;-61
2023/09/01 20:11:47;;;;;;;8.15;4.40;;;19.70;76.50;;;;;;10408789;28;20413;-61
2023/09/01 20:16:49;;;;;;;7.40;4.68;;;19.60;76.50;;;;;;10434825;28;20086;-61
2023/09/01 20:21:50;;;;;;;8.32;5.55;;;19.60;76.50;;;;;;10408474;28;20047;-61
2023/09/01 20:26:50;;;;;;;6.05;4.68;;;19.60;76.50;;;;;;10423288;28;20022;-60
2023/09/01 20:31:51;;;;;;;6.93;5.32;;;19.60;76.40;;;;;;10444790;28;20083;-60
2023/09/01 20:36:52;;;;;;;8.07;5.45;;;19.60;76.30;;;;;;10449077;28;20036;-61
2023/09/01 20:41:53;;;;;;;8.50;5.00;;;19.60;76.30;;;;;;10451584;28;20671;-60
2023/09/01 20:46:54;;;;;;;6.05;4.82;;;19.60;76.20;;;;;;10457333;28;20029;-60
2023/09/01 20:51:55;;;;;;;6.68;5.18;;;19.60;76.20;;;;;;10456387;28;20029;-61
2023/09/01 20:56:55;;;;;;;8.48;5.32;;;19.60;76.30;;;;;;10457286;28;20422;-61
2023/09/01 21:01:56;;;;;;;6.93;5.20;;;19.60;76.20;;;;;;10457014;28;20056;-61
2023/09/01 21:06:57;;;;;;;8.05;5.65;;;19.60;76.20;;;;;;10456673;28;20029;-60
2023/09/01 21:11:58;;;;;;;6.03;4.50;;;19.60;76.20;;;;;;10456610;28;20028;-61
2023/09/01 21:16:58;;;;;;;6.60;5.50;;;19.60;76.10;;;;;;10456370;28;20531;-61
2023/09/01 21:21:59;;;;;;;8.23;6.72;;;19.60;76.10;;;;;;10455920;28;20035;-60
2023/09/01 21:27:00;;;;;;;8.82;5.55;;;19.60;76.10;;;;;;10423733;28;20021;-61
2023/09/01 21:32:00;;;;;;;7.10;6.35;;;19.60;76.00;;;;;;10419253;28;20037;-61
2023/09/01 21:37:02;;;;;;;7.10;5.72;;;19.60;76.00;;;;;;10414409;28;20051;-60
2023/09/01 21:42:04;;;;;;;8.50;5.40;;;19.60;75.90;;;;;;10413738;28;20030;-61
2023/09/01 21:47:04;;;;;;;8.50;6.57;;;19.50;75.80;;;;;;10414259;28;20076;-61
2023/09/01 21:52:05;;;;;;;7.50;5.47;;;19.60;75.90;;;;;;10414039;28;20116;-61
2023/09/01 21:57:06;;;;;;;6.90;5.57;;;19.50;75.80;;;;;;10413853;28;20033;-60
2023/09/01 22:02:07;;;;;;;8.18;6.75;;;19.60;75.90;;;;;;10413135;28;20029;-61
2023/09/01 22:07:07;;;;;;;9.27;6.93;;;19.60;75.90;;;;;;10417510;28;20503;-61
2023/09/01 22:12:08;;;;;;;8.27;6.15;;;19.60;75.90;;;;;;10418504;28;20033;-61
2023/09/01 22:17:09;;;;;;;6.82;5.50;;;19.50;75.90;;;;;;10412924;28;20380;-61
2023/09/01 22:22:10;;;;;;;7.20;6.43;;;19.60;75.90;;;;;;10412328;28;20036;-61
2023/09/01 22:27:11;;;;;;;8.20;6.88;;;19.50;75.80;;;;;;10433639;28;20475;-61
2023/09/01 22:32:12;;;;;;;8.15;6.22;;;19.50;76.40;;;;;;10419937;28;20575;-60
2023/09/01 22:37:13;;;;;;;10.40;6.47;;;19.50;75.80;;;;;;10410699;28;20044;-60
2023/09/01 22:42:14;;;;;;;7.72;5.90;;;19.50;75.70;;;;;;10411361;28;20036;-61
2023/09/01 22:47:14;;;;;;;8.63;6.35;;;19.50;75.70;;;;;;10412316;28;20556;-61
2023/09/01 22:52:15;;;;;;;8.32;6.50;;;19.50;75.70;;;;;;10411390;28;20086;-60
2023/09/01 22:57:16;;;;;;;9.90;6.82;;;19.50;75.70;;;;;;10411282;28;20044;-61
2023/09/01 23:02:17;;;;;;;8.63;6.60;;;19.50;75.70;;;;;;10410955;28;20495;-60
2023/09/01 23:07:19;;;;;;;7.22;5.75;;;19.50;75.70;;;;;;10409994;28;20071;-60
2023/09/01 23:12:19;;;;;;;7.72;6.55;;;19.50;75.80;;;;;;10410146;28;20124;-60
2023/09/01 23:17:20;;;;;;;8.70;6.95;;;19.50;75.70;;;;;;10410531;28;20025;-61
2023/09/01 23:22:21;;;;;;;8.38;6.53;;;19.50;75.70;;;;;;10409929;28;20676;-60
2023/09/01 23:27:22;;;;;;;8.65;7.43;;;19.50;75.70;;;;;;10423213;28;20129;-61
2023/09/01 23:32:25;;;;;;;9.48;7.75;;;19.50;75.70;;;;;;10415034;28;20030;-60
2023/09/01 23:37:26;;;;;;;9.27;7.47;;;19.50;75.60;;;;;;10410029;28;20630;-61
2023/09/01 23:42:26;;;;;;;8.35;7.43;;;19.50;75.60;;;;;;10409235;28;20075;-61
2023/09/01 23:47:27;;;;;;;7.90;6.43;;;19.50;75.60;;;;;;10409458;28;20029;-61
2023/09/01 23:52:28;;;;;;;9.30;7.80;;;19.50;75.60;;;;;;10409049;28;20041;-60
2023/09/01 23:57:30;;;;;;;8.27;7.18;;;19.50;75.60;;;;;;10409330;28;20658;-61
